Time;durP1;ratioP1;P1;durP2;ratioP2;P2;SDS_P1;SDS_P2;PMS_P1;PMS_P2;Temp;Humidity;BMP_temperature;BMP_pressure;BME280_temperature;BME280_humidity;BME280_pressure;Samples;Min_cycle;Max_cycle;Signal;HPM_P1;HPM_P2
2022/08/02 00:00:11;;;;;;;1.38;1.20;;;;;;;21.95;58.01;100089.25;5103284;28;20043;-43
2022/08/02 00:02:37;;;;;;;1.38;1.27;;;;;;;21.93;58.26;100078.78;5107006;28;20055;-44
2022/08/02 00:05:05;;;;;;;2.05;1.85;;;;;;;21.93;58.48;100077.94;5106614;27;20510;-42
2022/08/02 00:07:32;;;;;;;1.60;1.50;;;;;;;21.91;58.49;100069.22;5103771;28;20108;-42
2022/08/02 00:10:08;;;;;;;1.98;1.88;;;;;;;21.87;58.87;100070.31;5105760;28;20131;-43
2022/08/02 00:12:35;;;;;;;1.85;1.75;;;;;;;21.86;58.85;100068.63;5107843;28;20136;-42
2022/08/02 00:15:03;;;;;;;1.75;1.65;;;;;;;21.83;59.14;100062.59;5107534;28;20039;-43
2022/08/02 00:17:29;;;;;;;3.30;1.38;;;;;;;21.80;59.46;100057.47;5100322;28;20096;-42
2022/08/02 00:19:56;;;;;;;2.65;0.95;;;;;;;21.80;59.55;100062.72;5099693;28;20048;-43
2022/08/02 00:22:23;;;;;;;1.95;1.63;;;;;;;21.78;59.40;100064.56;5105354;28;20051;-42
2022/08/02 00:24:49;;;;;;;1.35;1.25;;;;;;;21.77;59.61;100054.97;5109474;28;20088;-45
2022/08/02 00:27:16;;;;;;;1.35;1.23;;;;;;;21.77;59.78;100051.47;5105204;28;20416;-45
2022/08/02 00:29:42;;;;;;;2.55;1.45;;;;;;;21.76;59.65;100050.63;5098808;28;20060;-45
2022/08/02 00:32:19;;;;;;;1.65;1.48;;;;;;;21.75;59.80;100054.19;5103777;28;20670;-41
2022/08/02 00:34:46;;;;;;;2.10;1.80;;;;;;;21.74;60.21;100052.47;5105666;28;20058;-42
2022/08/02 00:37:13;;;;;;;1.35;0.30;;;;;;;21.74;59.76;100041.94;5101335;28;20418;-43
2022/08/02 00:39:41;;;;;;;3.47;1.67;;;;;;;21.73;59.58;100041.97;5106331;28;20052;-43
2022/08/02 00:42:09;;;;;;;3.17;1.48;;;;;;;21.73;60.07;100050.75;5097403;28;20134;-44
2022/08/02 00:44:37;;;;;;;1.50;1.23;;;;;;;21.71;60.06;100044.69;5102247;28;20035;-46
2022/08/02 00:47:03;;;;;;;3.03;1.38;;;;;;;21.72;59.62;100043.78;5102697;28;20043;-47
2022/08/02 00:49:30;;;;;;;1.35;1.25;;;;;;;21.70;59.65;100040.34;5101368;28;20048;-44
2022/08/02 00:51:59;;;;;;;1.20;0.95;;;;;;;21.69;59.58;100034.22;5102325;28;20047;-47
2022/08/02 00:54:26;;;;;;;1.58;1.48;;;;;;;21.67;60.24;100036.09;5103358;28;20046;-45
2022/08/02 00:56:52;;;;;;;1.58;1.48;;;;;;;21.65;60.06;100030.03;5106899;28;20055;-47
2022/08/02 00:59:19;;;;;;;1.63;1.40;;;;;;;21.63;59.63;100031.91;5108013;28;20060;-45
2022/08/02 01:01:46;;;;;;;1.52;1.42;;;;;;;21.58;59.95;100032.13;5108564;28;20503;-46
2022/08/02 01:04:25;;;;;;;1.35;0.85;;;;;;;21.57;60.36;100034.84;5105521;28;20127;-44
2022/08/02 01:07:00;;;;;;;1.63;1.27;;;;;;;21.53;60.14;100031.50;5099308;27;20365;-44
2022/08/02 01:09:27;;;;;;;2.10;2.00;;;;;;;21.51;60.35;100024.63;5103301;28;20706;-45
2022/08/02 01:11:53;;;;;;;2.25;1.52;;;;;;;21.49;60.75;100032.59;5102219;28;20047;-42
2022/08/02 01:14:23;;;;;;;1.52;1.42;;;;;;;21.48;61.27;100022.13;5106445;28;20051;-45
2022/08/02 01:16:52;;;;;;;;;;;;;;;21.27;60.97;100025.72;5099272;28;20051;-43
2022/08/02 01:25:43;;;;;;;2.35;0.80;;;;;;;21.64;61.79;100024.84;5060108;28;20380;-42
2022/08/02 01:31:13;;;;;;;2.25;0.40;;;;;;;21.43;62.06;100014.44;5044666;28;20373;-45
2022/08/02 01:33:46;;;;;;;1.60;0.40;;;;;;;21.42;61.45;100020.63;5025368;28;20450;-44
2022/08/02 01:36:17;;;;;;;1.38;0.57;;;;;;;21.37;62.02;100017.34;5015939;28;20522;-46
2022/08/02 01:38:48;;;;;;;1.45;0.65;;;;;;;21.36;62.05;100018.28;5019472;28;20053;-45
2022/08/02 01:41:18;;;;;;;1.65;0.50;;;;;;;21.32;62.46;100015.81;5023211;28;20578;-44
2022/08/02 01:43:48;;;;;;;0.90;0.40;;;;;;;21.31;62.53;100019.38;5016913;28;20053;-43
2022/08/02 01:46:16;;;;;;;2.20;0.88;;;;;;;21.30;62.44;100017.66;5015193;28;20113;-42
2022/08/02 01:48:46;;;;;;;1.35;0.60;;;;;;;21.28;62.70;100016.88;5021710;28;20069;-44
2022/08/02 01:51:16;;;;;;;2.10;0.63;;;;;;;21.25;62.79;100022.31;5020748;28;20112;-42
2022/08/02 01:53:47;;;;;;;1.98;0.75;;;;;;;21.23;63.07;100016.25;5037734;28;20052;-42
2022/08/02 01:56:15;;;;;;;2.83;0.52;;;;;;;21.19;63.03;100009.44;5040398;28;20049;-44
2022/08/02 01:58:43;;;;;;;2.03;0.40;;;;;;;21.18;63.41;100013.00;5044256;28;20041;-44
2022/08/02 02:01:10;;;;;;;0.90;0.60;;;;;;;21.13;63.68;100005.31;5042882;28;20095;-43
2022/08/02 02:03:45;;;;;;;1.33;0.52;;;;;;;21.12;63.60;100008.88;5044155;28;20049;-43
2022/08/02 02:06:14;;;;;;;2.25;0.80;;;;;;;21.10;63.99;100004.63;5031365;28;20080;-42
2022/08/02 02:08:42;;;;;;;2.67;0.73;;;;;;;21.09;64.47;99997.63;5043307;28;20095;-42
2022/08/02 02:11:09;;;;;;;1.52;0.95;;;;;;;21.08;63.72;99988.03;5043920;28;20045;-43
2022/08/02 02:13:59;;;;;;;3.92;0.65;;;;;;;21.03;64.51;99991.72;5038980;28;20076;-41
2022/08/02 02:16:27;;;;;;;1.40;0.60;;;;;;;21.02;64.48;99992.66;5040844;28;20049;-43
2022/08/02 02:18:54;;;;;;;1.35;0.57;;;;;;;21.00;64.49;99994.50;5038320;28;20061;-43
2022/08/02 02:21:21;;;;;;;4.35;0.70;;;;;;;20.99;64.74;99982.28;5039360;28;20041;-41
2022/08/02 02:23:48;;;;;;;2.15;0.47;;;;;;;20.99;64.36;99984.03;5040743;28;20053;-42
2022/08/02 02:26:17;;;;;;;2.45;0.57;;;;;;;20.96;64.57;99979.78;5045176;28;20048;-45
2022/08/02 02:29:00;;;;;;;1.63;0.90;;;;;;;20.93;65.09;99967.63;5042594;28;21012;-42
2022/08/02 02:31:31;;;;;;;3.30;0.85;;;;;;;20.91;65.07;99966.00;5040907;28;20045;-42
2022/08/02 02:34:03;;;;;;;1.92;0.90;;;;;;;20.89;65.09;99957.31;5036584;28;20111;-42
2022/08/02 02:36:33;;;;;;;4.65;1.13;;;;;;;20.84;64.94;99946.94;5042426;28;20045;-42
2022/08/02 02:39:05;;;;;;;2.88;1.75;;;;;;;20.83;65.16;99950.50;5043122;28;20111;-49
2022/08/02 02:41:41;;;;;;;3.25;1.23;;;;;;;20.79;65.40;99944.56;5029095;28;20045;-45
2022/08/02 02:44:12;;;;;;;3.67;1.75;;;;;;;20.78;65.46;99937.56;5027548;28;20054;-45
2022/08/02 02:46:39;;;;;;;4.03;1.75;;;;;;;20.77;65.22;99925.34;5030021;28;20563;-41
2022/08/02 02:49:09;;;;;;;3.30;1.90;;;;;;;20.77;65.14;99920.06;5023453;28;20440;-47
2022/08/02 02:51:39;;;;;;;5.22;1.83;;;;;;;20.75;65.37;99916.69;5028358;28;20041;-46
2022/08/02 02:54:07;;;;;;;;;;;;;;;20.53;65.29;99922.94;5028313;28;20103;-42
2022/08/02 02:56:54;;;;;;;3.78;1.50;;;;;;;20.62;65.25;99916.41;5028448;28;19952;-45
2022/08/02 02:59:21;;;;;;;3.33;1.50;;;;;;;20.61;65.85;99919.09;5023502;28;20469;-47
2022/08/02 03:01:49;;;;;;;5.13;1.65;;;;;;;20.60;65.75;99927.94;5019769;28;20045;-47
2022/08/02 03:04:25;;;;;;;2.97;1.20;;;;;;;20.55;65.97;99923.75;5026973;28;20493;-46
2022/08/02 03:06:52;;;;;;;2.42;1.35;;;;;;;20.51;65.88;99924.81;5022833;28;20115;-41
2022/08/02 03:09:19;;;;;;;3.05;1.15;;;;;;;20.50;65.89;99917.81;5030177;28;20053;-48
2022/08/02 03:11:47;;;;;;;2.28;1.17;;;;;;;20.46;66.34;99920.69;5025719;28;20045;-42
2022/08/02 03:14:14;;;;;;;2.90;1.27;;;;;;;20.44;65.94;99923.38;5029574;28;20104;-42
2022/08/02 03:16:43;;;;;;;2.10;1.27;;;;;;;20.46;66.26;99921.50;5020616;28;20112;-41
2022/08/02 03:19:09;;;;;;;2.40;1.13;;;;;;;20.44;66.45;99915.50;5011773;28;20100;-41
2022/08/02 03:21:36;;;;;;;2.03;1.50;;;;;;;20.42;66.60;99912.06;5026272;28;20683;-41
2022/08/02 03:24:03;;;;;;;2.60;1.13;;;;;;;20.44;66.30;99912.88;5027399;28;20421;-42
2022/08/02 03:26:30;;;;;;;3.15;1.50;;;;;;;20.42;66.38;99909.44;5028771;28;20100;-44
2022/08/02 03:28:57;;;;;;;3.58;1.55;;;;;;;20.41;66.18;99907.75;5021847;28;20672;-42
2022/08/02 03:31:24;;;;;;;3.92;1.38;;;;;;;20.39;66.75;99899.91;5029655;28;20053;-42
2022/08/02 03:33:51;;;;;;;5.80;2.10;;;;;;;20.38;66.84;99905.25;5025996;28;20042;-43
2022/08/02 03:36:21;;;;;;;3.17;1.55;;;;;;;20.38;66.72;99913.13;5025844;28;20606;-42
2022/08/02 03:38:50;;;;;;;4.95;1.42;;;;;;;20.35;66.88;99903.63;5024869;28;20050;-41
2022/08/02 03:41:18;;;;;;;1.92;1.33;;;;;;;20.34;66.77;99906.31;5024431;28;20076;-42
2022/08/02 03:43:47;;;;;;;3.72;2.03;;;;;;;20.34;66.69;99907.16;5023469;28;20489;-41
2022/08/02 03:46:16;;;;;;;3.13;0.80;;;;;;;20.34;66.76;99901.06;5021725;28;20100;-42
2022/08/02 03:48:43;;;;;;;2.47;1.05;;;;;;;20.33;66.79;99888.84;5030338;28;20176;-42
2022/08/02 03:51:10;;;;;;;4.53;1.08;;;;;;;20.33;66.85;99891.47;5027220;28;20046;-41
2022/08/02 03:53:37;;;;;;;3.28;1.60;;;;;;;20.33;67.12;99899.34;5018516;28;20493;-43
2022/08/02 03:56:05;;;;;;;4.68;1.70;;;;;;;20.34;67.09;99890.53;5024585;28;20540;-42
2022/08/02 03:58:32;;;;;;;2.45;1.52;;;;;;;20.35;67.38;99887.84;5027244;28;20107;-42
2022/08/02 04:00:59;;;;;;;2.60;1.17;;;;;;;20.32;67.06;99885.34;5026643;28;20119;-45
2022/08/02 04:03:26;;;;;;;3.92;1.23;;;;;;;20.32;67.21;99887.09;5029660;28;20075;-42
2022/08/02 04:05:52;;;;;;;5.43;1.45;;;;;;;20.31;67.77;99886.28;5023517;28;20127;-42
2022/08/02 04:08:30;;;;;;;2.88;1.63;;;;;;;20.29;67.49;99878.44;5008596;28;20046;-42
2022/08/02 04:13:50;;;;;;;3.25;1.38;;;;;;;20.32;67.61;99897.63;5005606;28;20425;-42
2022/08/02 04:16:21;;;;;;;4.55;1.50;;;;;;;20.34;67.40;99903.69;4999746;28;20058;-42
2022/08/02 04:18:55;;;;;;;4.63;1.20;;;;;;;20.33;67.46;99900.19;4998836;28;20045;-42
2022/08/02 04:21:27;;;;;;;3.65;1.48;;;;;;;20.35;67.56;99892.22;5024616;28;20065;-43
2022/08/02 04:24:16;;;;;;;4.90;1.40;;;;;;;20.35;67.41;99889.59;5022516;28;20127;-43
2022/08/02 04:26:45;;;;;;;4.00;1.20;;;;;;;20.37;68.07;99885.97;5023054;28;20045;-43
2022/08/02 04:29:15;;;;;;;3.88;1.30;;;;;;;20.39;67.81;99893.78;5027575;28;20045;-43
2022/08/02 04:31:42;;;;;;;4.25;1.67;;;;;;;20.43;67.68;99890.09;5024730;28;20394;-49
2022/08/02 04:34:09;;;;;;;5.97;1.20;;;;;;;20.43;67.55;99890.09;5025392;28;20123;-43
2022/08/02 04:36:42;;;;;;;5.25;1.88;;;;;;;20.43;67.81;99887.47;5023327;28;20061;-43
2022/08/02 04:39:10;;;;;;;2.97;1.20;;;;;;;20.43;67.87;99884.81;5023735;28;20087;-43
2022/08/02 04:41:38;;;;;;;3.55;1.10;;;;;;;20.42;68.13;99888.38;5028220;28;20053;-44
2022/08/02 04:44:09;;;;;;;2.80;1.20;;;;;;;20.41;67.77;99884.06;5022091;28;20048;-44
2022/08/02 04:46:36;;;;;;;3.20;1.30;;;;;;;20.39;68.05;99883.28;5023446;28;20041;-44
2022/08/02 04:49:03;;;;;;;5.60;2.33;;;;;;;20.36;68.37;99883.44;5020777;28;20050;-42
2022/08/02 04:51:34;;;;;;;7.45;1.67;;;;;;;20.35;68.95;99871.19;5025875;28;20095;-42
2022/08/02 04:54:05;;;;;;;4.32;1.35;;;;;;;20.32;69.04;99871.31;5026284;28;20702;-41
2022/08/02 04:56:36;;;;;;;3.63;1.17;;;;;;;20.30;69.42;99871.44;5026185;28;20374;-40
2022/08/02 04:59:03;;;;;;;2.30;0.82;;;;;;;20.30;69.04;99884.56;5019188;28;20482;-45
2022/08/02 05:01:31;;;;;;;4.93;1.35;;;;;;;20.30;69.27;99876.69;5022050;28;20041;-44
2022/08/02 05:03:57;;;;;;;4.82;1.40;;;;;;;20.31;69.44;99874.88;5026810;28;20597;-43
2022/08/02 05:06:24;;;;;;;3.63;1.65;;;;;;;20.31;69.74;99880.16;5025685;28;20063;-42
2022/08/02 05:08:51;;;;;;;4.40;1.23;;;;;;;20.33;69.06;99884.41;5029005;28;20053;-43
2022/08/02 05:11:21;;;;;;;6.72;1.17;;;;;;;20.34;69.25;99891.41;5022568;28;20046;-43
2022/08/02 05:13:59;;;;;;;5.43;1.42;;;;;;;20.36;69.41;99889.53;5024996;28;20053;-43
2022/08/02 05:16:26;;;;;;;2.25;1.10;;;;;;;20.39;69.50;99893.78;5021263;28;20045;-45
2022/08/02 05:18:59;;;;;;;4.95;1.40;;;;;;;20.41;69.49;99902.47;5021712;28;20060;-42
2022/08/02 05:21:26;;;;;;;3.65;1.27;;;;;;;20.44;69.35;99896.22;5026961;28;20053;-43
2022/08/02 05:23:53;;;;;;;2.78;0.98;;;;;;;20.47;69.58;99896.91;5025733;28;20112;-43
2022/08/02 05:26:19;;;;;;;3.63;1.33;;;;;;;20.51;69.58;99898.50;5026509;28;20045;-41
2022/08/02 05:28:46;;;;;;;3.63;1.48;;;;;;;20.57;69.29;99901.75;5020987;28;20049;-43
2022/08/02 05:31:13;;;;;;;3.70;1.00;;;;;;;20.59;69.49;99908.66;5027093;28;20497;-43
2022/08/02 05:33:39;;;;;;;5.47;1.45;;;;;;;20.63;69.61;99914.59;5018472;28;20053;-43
2022/08/02 05:36:08;;;;;;;2.45;1.65;;;;;;;20.67;69.42;99913.56;5025092;28;20042;-43
2022/08/02 05:38:35;;;;;;;2.75;1.10;;;;;;;20.69;69.40;99890.66;5024439;28;20049;-45
2022/08/02 05:41:04;;;;;;;4.30;1.15;;;;;;;20.73;69.41;99892.19;5023748;28;20046;-43
2022/08/02 05:43:31;;;;;;;4.68;1.35;;;;;;;20.76;69.32;99883.31;5021711;28;20436;-42
2022/08/02 05:45:59;;;;;;;5.18;1.25;;;;;;;20.79;69.42;99884.03;5025667;28;20056;-40
2022/08/02 05:48:26;;;;;;;3.08;1.42;;;;;;;20.81;69.11;99890.06;5025497;28;20432;-43
2022/08/02 05:51:03;;;;;;;6.47;1.75;;;;;;;20.84;69.25;99885.59;5024087;28;20486;-41
2022/08/02 05:53:55;;;;;;;4.72;1.27;;;;;;;20.86;69.43;99886.34;5023220;28;20045;-41
2022/08/02 05:59:10;;;;;;;2.42;0.98;;;;;;;20.89;69.28;99896.75;5046423;28;20976;-42
2022/08/02 06:01:39;;;;;;;5.93;1.38;;;;;;;20.90;69.31;99887.94;5021046;28;20690;-45
2022/08/02 06:04:08;;;;;;;2.58;0.70;;;;;;;20.91;69.04;99894.91;5023472;28;20421;-43
2022/08/02 06:06:36;;;;;;;4.25;1.23;;;;;;;20.94;69.30;99889.50;5021309;28;20129;-45
2022/08/02 06:09:09;;;;;;;3.60;0.80;;;;;;;20.97;69.02;99888.50;5006843;28;20068;-43
2022/08/02 06:11:38;;;;;;;1.80;0.52;;;;;;;21.00;69.09;99881.28;5021151;28;20049;-44
2022/08/02 06:14:06;;;;;;;3.85;0.85;;;;;;;21.02;69.19;99890.00;5019677;28;20042;-41
2022/08/02 06:16:34;;;;;;;6.47;1.10;;;;;;;21.02;69.30;99892.63;5023474;28;20046;-44
2022/08/02 06:19:08;;;;;;;1.92;1.08;;;;;;;21.05;69.29;99889.81;5024405;28;20481;-43
2022/08/02 06:21:35;;;;;;;4.90;1.13;;;;;;;21.05;69.44;99886.34;5013397;28;20112;-42
2022/08/02 06:24:23;;;;;;;4.50;1.20;;;;;;;21.05;69.05;99886.34;5020814;28;20085;-45
2022/08/02 06:26:53;;;;;;;2.85;0.90;;;;;;;21.08;69.41;99886.19;5015611;28;20442;-44
2022/08/02 06:29:23;;;;;;;3.20;0.85;;;;;;;21.10;69.69;99878.22;5021039;28;20130;-44
2022/08/02 06:31:52;;;;;;;5.18;0.90;;;;;;;21.11;69.17;99879.91;5018797;28;20043;-44
2022/08/02 06:34:18;;;;;;;6.85;1.00;;;;;;;21.13;69.26;99889.44;5020203;28;20104;-43
2022/08/02 06:36:55;;;;;;;2.42;0.70;;;;;;;21.18;69.28;99887.44;5016655;28;20053;-44
2022/08/02 06:39:29;;;;;;;4.60;1.17;;;;;;;21.27;69.59;99883.50;5020509;28;20200;-43
2022/08/02 06:42:01;;;;;;;1.63;0.95;;;;;;;21.37;69.28;99880.38;5017741;28;20108;-45
2022/08/02 06:44:28;;;;;;;5.43;1.15;;;;;;;21.48;69.27;99877.22;5018769;28;20056;-46
2022/08/02 06:47:15;;;;;;;3.58;1.15;;;;;;;21.59;68.95;99880.16;5019826;28;20049;-48
2022/08/02 06:49:42;;;;;;;3.17;0.80;;;;;;;21.65;69.37;99879.81;5019842;28;20120;-44
2022/08/02 06:52:23;;;;;;;3.90;0.75;;;;;;;21.77;68.84;99886.28;5022093;28;20061;-44
2022/08/02 06:54:56;;;;;;;3.53;0.70;;;;;;;21.95;68.59;99880.94;5018937;28;20120;-49
2022/08/02 06:57:22;;;;;;;2.60;1.02;;;;;;;22.08;68.29;99889.91;5013931;28;20042;-44
2022/08/02 06:59:49;;;;;;;6.10;0.90;;;;;;;22.16;68.43;99880.75;5017590;28;20075;-47
2022/08/02 07:02:16;;;;;;;2.17;0.82;;;;;;;22.24;68.03;99880.31;5018474;28;20054;-46
2022/08/02 07:04:42;;;;;;;1.33;0.63;;;;;;;22.34;67.60;99886.81;5022383;28;20049;-44
2022/08/02 07:07:09;;;;;;;3.58;0.60;;;;;;;22.41;67.78;99892.59;5024605;28;20515;-49
2022/08/02 07:09:36;;;;;;;4.60;0.28;;;;;;;22.45;67.53;99891.47;5013517;28;20050;-45
2022/08/02 07:12:03;;;;;;;4.00;1.15;;;;;;;22.47;67.22;99894.91;5004135;28;20066;-48
2022/08/02 07:14:29;;;;;;;2.58;0.40;;;;;;;22.47;66.91;99897.53;5004458;28;20054;-45
2022/08/02 07:16:57;;;;;;;3.58;0.80;;;;;;;22.45;67.10;99889.69;5005153;28;20084;-49
2022/08/02 07:19:26;;;;;;;1.90;0.77;;;;;;;22.45;67.30;99899.38;5011845;28;20053;-43
2022/08/02 07:22:04;;;;;;;2.45;0.70;;;;;;;22.44;66.98;99887.16;5007068;28;20073;-42
2022/08/02 07:24:31;;;;;;;4.07;0.63;;;;;;;22.50;66.47;99888.59;5010114;28;20045;-43
2022/08/02 07:26:58;;;;;;;1.83;1.00;;;;;;;22.58;67.24;99874.06;5003878;28;20457;-42
2022/08/02 07:29:36;;;;;;;1.65;0.75;;;;;;;22.69;66.79;99886.66;5004268;28;20149;-47
2022/08/02 07:32:13;;;;;;;1.63;0.70;;;;;;;22.83;66.79;99888.50;5003190;28;20042;-46
2022/08/02 07:34:41;;;;;;;1.67;0.65;;;;;;;22.97;66.13;99894.81;5002406;28;20041;-43
2022/08/02 07:37:17;;;;;;;2.92;0.70;;;;;;;23.22;66.48;99901.31;5004560;28;20089;-44
2022/08/02 07:40:06;;;;;;;2.25;0.63;;;;;;;23.45;65.67;99886.78;5009435;28;20050;-44
2022/08/02 07:42:40;;;;;;;2.08;0.45;;;;;;;23.65;65.05;99883.88;5007942;28;20081;-41
2022/08/02 07:45:07;;;;;;;1.52;0.43;;;;;;;23.88;64.79;99888.59;5005659;28;20046;-47
2022/08/02 07:47:36;;;;;;;2.17;0.60;;;;;;;24.07;64.19;99874.25;5006086;28;20045;-44
2022/08/02 07:50:03;;;;;;;;;;;;;;;24.15;64.07;99878.25;5009087;28;20464;-45
2022/08/02 07:52:30;;;;;;;2.35;0.45;;;;;;;24.26;62.84;99883.72;4999721;28;20325;-47
2022/08/02 07:54:57;;;;;;;2.05;0.80;;;;;;;24.34;63.16;99881.41;4989013;28;20046;-41
2022/08/02 07:57:24;;;;;;;5.05;0.55;;;;;;;24.56;62.50;99882.72;4987694;28;20076;-41
2022/08/02 07:59:50;;;;;;;3.22;1.10;;;;;;;24.67;61.52;99878.50;4984292;28;20054;-43
2022/08/02 08:02:17;;;;;;;1.65;0.80;;;;;;;24.70;61.84;99887.09;4989891;28;20050;-44
2022/08/02 08:04:43;;;;;;;2.90;0.50;;;;;;;24.79;61.24;99906.84;4983449;28;20102;-44
2022/08/02 08:07:10;;;;;;;3.28;1.13;;;;;;;24.74;61.10;99898.34;4984129;28;20091;-42
2022/08/02 08:09:40;;;;;;;2.67;0.50;;;;;;;24.68;61.36;99888.16;4985708;28;20478;-45
2022/08/02 08:12:08;;;;;;;2.10;0.60;;;;;;;24.59;61.50;99901.00;4997971;28;20050;-47
2022/08/02 08:14:36;;;;;;;1.00;0.52;;;;;;;24.56;61.79;99885.34;4988185;28;20081;-45
2022/08/02 08:17:04;;;;;;;1.15;0.50;;;;;;;24.47;61.03;99891.22;4986439;28;20054;-46
2022/08/02 08:19:31;;;;;;;2.40;0.57;;;;;;;24.41;61.21;99897.75;4986205;28;20051;-44
2022/08/02 08:22:18;;;;;;;3.53;1.10;;;;;;;24.38;61.84;99888.22;4985108;28;20125;-45
2022/08/02 08:24:46;;;;;;;3.15;0.70;;;;;;;24.57;61.94;99889.69;4990288;28;20052;-47
2022/08/02 08:27:14;;;;;;;1.75;0.70;;;;;;;24.76;61.46;99877.91;4967855;28;20379;-47
2022/08/02 08:29:42;;;;;;;1.40;0.63;;;;;;;25.03;60.68;99888.50;4984135;28;20761;-41
2022/08/02 08:32:09;;;;;;;1.63;0.95;;;;;;;25.38;60.18;99887.09;4984173;28;20050;-46
2022/08/02 08:34:43;;;;;;;2.33;0.77;;;;;;;25.51;59.20;99891.56;4980582;28;20053;-45
2022/08/02 08:37:09;;;;;;;0.57;0.55;;;;;;;25.62;59.33;99894.34;4989644;28;20054;-46
2022/08/02 08:39:45;;;;;;;3.15;1.17;;;;;;;25.75;59.12;99882.91;4988156;28;20038;-47
2022/08/02 08:42:23;;;;;;;2.72;0.80;;;;;;;26.03;58.24;99880.94;4985371;28;20510;-42
2022/08/02 08:44:50;;;;;;;1.98;0.70;;;;;;;26.36;58.26;99884.84;4986051;28;20117;-46
2022/08/02 08:47:18;;;;;;;1.52;0.60;;;;;;;26.73;57.36;99880.47;4990190;28;20046;-42
2022/08/02 08:49:51;;;;;;;2.05;0.70;;;;;;;27.02;56.60;99872.19;4985806;28;20060;-43
2022/08/02 08:52:22;;;;;;;3.63;0.85;;;;;;;27.32;55.20;99878.78;4988195;28;20137;-46
2022/08/02 08:54:50;;;;;;;2.17;1.00;;;;;;;27.37;55.63;99876.63;4985890;28;20714;-48
2022/08/02 08:57:19;;;;;;;3.58;0.45;;;;;;;27.50;55.48;99876.53;4981805;28;20047;-48
2022/08/02 08:59:45;;;;;;;2.42;0.80;;;;;;;27.62;54.40;99885.34;4984593;28;20062;-44
2022/08/02 09:02:12;;;;;;;3.35;0.63;;;;;;;27.87;54.85;99862.19;4986483;28;20050;-43
2022/08/02 09:04:47;;;;;;;2.63;0.57;;;;;;;28.26;53.89;99856.44;4989284;28;20120;-44
2022/08/02 09:07:20;;;;;;;1.02;0.60;;;;;;;28.61;52.75;99866.06;4980835;28;20057;-43
2022/08/02 09:09:46;;;;;;;1.33;0.45;;;;;;;28.83;52.62;99864.31;4980710;28;20054;-47
2022/08/02 09:12:15;;;;;;;2.45;0.60;;;;;;;29.09;52.66;99884.47;5001723;28;20062;-43
2022/08/02 09:14:42;;;;;;;2.80;0.60;;;;;;;29.41;51.36;99856.88;5005656;28;20494;-44
2022/08/02 09:17:11;;;;;;;2.47;0.90;;;;;;;29.50;51.33;99871.25;5000694;28;20108;-45
2022/08/02 09:19:39;;;;;;;0.70;0.40;;;;;;;29.41;50.46;99875.53;5009193;28;20042;-47
2022/08/02 09:22:13;;;;;;;2.53;0.70;;;;;;;29.22;50.17;99881.59;5005562;28;20504;-43
2022/08/02 09:27:20;;;;;;;2.83;0.73;;;;;;;28.80;51.60;99885.03;5024686;27;20932;-43
2022/08/02 09:29:50;;;;;;;2.30;0.60;;;;;;;28.65;51.35;99882.66;5024600;28;20065;-47
2022/08/02 09:32:46;;;;;;;2.85;1.52;;;;;;;28.51;51.41;99881.13;5040316;28;20776;-44
2022/08/02 09:35:29;;;;;;;2.55;0.73;;;;;;;28.46;52.05;99878.84;5033848;28;20049;-43
2022/08/02 09:38:16;;;;;;;4.57;0.70;;;;;;;28.50;51.68;99883.91;5020309;28;20112;-44
2022/08/02 09:40:43;;;;;;;3.38;1.25;;;;;;;28.55;50.91;99873.72;5023904;28;20042;-43
2022/08/02 09:43:09;;;;;;;1.60;0.80;;;;;;;28.77;51.43;99890.63;5025720;28;20108;-45
2022/08/02 09:45:36;;;;;;;4.72;1.00;;;;;;;28.94;51.44;99882.09;5026754;28;20092;-45
2022/08/02 09:48:07;;;;;;;1.58;0.68;;;;;;;29.03;50.42;99884.97;5025133;28;20104;-43
2022/08/02 09:50:39;;;;;;;1.85;0.75;;;;;;;29.17;50.24;99886.50;5024843;28;20049;-43
2022/08/02 09:53:11;;;;;;;4.00;0.68;;;;;;;29.13;50.14;99888.56;5023864;28;20050;-43
2022/08/02 09:55:40;;;;;;;4.93;1.00;;;;;;;29.08;50.04;99883.59;5030921;28;20053;-44
2022/08/02 09:58:22;;;;;;;3.53;1.08;;;;;;;29.07;50.35;99891.72;5041953;28;20053;-43
2022/08/02 10:00:58;;;;;;;2.97;0.93;;;;;;;29.06;50.16;99895.38;5026482;28;20732;-43
2022/08/02 10:03:24;;;;;;;2.33;0.88;;;;;;;29.01;50.09;99892.25;5021078;28;20049;-49
2022/08/02 10:06:03;;;;;;;1.98;1.08;;;;;;;28.93;49.97;99893.72;5024375;28;20136;-44
2022/08/02 10:08:32;;;;;;;3.70;0.93;;;;;;;28.99;49.76;99879.06;5025494;28;20049;-46
2022/08/02 10:11:00;;;;;;;4.18;0.73;;;;;;;28.99;50.10;99893.22;5022739;28;20561;-49
2022/08/02 10:13:33;;;;;;;2.25;1.15;;;;;;;28.91;49.79;99893.00;5022367;28;20054;-49
2022/08/02 10:16:01;;;;;;;3.17;0.57;;;;;;;28.95;49.96;99891.81;5023334;28;20129;-46
2022/08/02 10:18:28;;;;;;;4.43;0.63;;;;;;;29.04;49.19;99892.81;5023956;28;20053;-47
2022/08/02 10:21:10;;;;;;;2.28;0.60;;;;;;;29.07;49.68;99891.72;5023969;28;20053;-43
2022/08/02 10:23:39;;;;;;;5.97;1.85;;;;;;;29.10;49.44;99896.81;5021660;28;20053;-49
2022/08/02 10:26:06;;;;;;;3.08;0.77;;;;;;;29.14;49.84;99898.22;5021708;28;20037;-44
2022/08/02 10:28:33;;;;;;;2.97;0.80;;;;;;;29.10;49.38;99902.13;5025224;28;20057;-46
2022/08/02 10:31:04;;;;;;;4.85;1.55;;;;;;;29.04;48.75;99902.66;5023135;28;20077;-44
2022/08/02 10:33:35;;;;;;;2.22;0.65;;;;;;;28.95;49.83;99897.13;5041946;28;20049;-48
2022/08/02 10:36:04;;;;;;;2.25;0.88;;;;;;;29.01;49.25;99902.91;5022107;28;20052;-45
2022/08/02 10:38:34;;;;;;;2.13;1.20;;;;;;;29.13;49.08;99891.22;5010714;28;20461;-46
2022/08/02 10:41:01;;;;;;;3.20;0.93;;;;;;;29.35;49.44;99900.09;5020182;28;20677;-47
2022/08/02 10:57:17;;;;;;;2.08;0.47;;;;;;;29.69;47.98;99907.03;5019775;28;20421;-47
2022/08/02 10:59:44;;;;;;;3.42;0.45;;;;;;;29.87;49.03;99901.94;5019006;28;20050;-52
2022/08/02 11:02:12;;;;;;;2.17;0.60;;;;;;;30.02;48.42;99897.91;5021451;28;20053;-47
2022/08/02 11:07:18;;;;;;;3.25;1.13;;;;;;;30.26;46.92;99899.44;5058229;27;20395;-48
2022/08/02 11:09:47;;;;;;;5.13;1.83;;;;;;;30.16;46.80;99897.72;5022429;28;20049;-49
2022/08/02 11:12:16;;;;;;;2.08;1.88;;;;;;;30.09;47.14;99898.22;5019507;28;20073;-50
2022/08/02 11:14:57;;;;;;;2.83;1.33;;;;;;;29.97;46.95;99904.63;5015891;28;20053;-45
2022/08/02 11:17:24;;;;;;;3.38;1.58;;;;;;;29.83;47.96;99904.03;5022350;28;20057;-48
2022/08/02 11:22:50;;;;;;;0.93;0.82;;;;;;;29.73;47.73;99893.31;5068033;27;20389;-46
2022/08/02 11:25:33;;;;;;;0.80;0.55;;;;;;;29.69;47.47;99891.88;5044079;28;20048;-48
2022/08/02 11:28:19;;;;;;;2.42;0.82;;;;;;;29.84;48.20;99888.84;5044533;28;20120;-45
2022/08/02 11:31:00;;;;;;;2.20;0.60;;;;;;;29.83;47.92;99892.50;5043102;28;20080;-50
2022/08/02 11:33:31;;;;;;;1.10;0.93;;;;;;;29.86;48.32;99892.25;5027307;28;20076;-46
2022/08/02 11:36:02;;;;;;;0.75;0.60;;;;;;;29.86;48.54;99894.91;5025929;28;20052;-47
2022/08/02 11:38:29;;;;;;;2.38;1.05;;;;;;;29.87;47.97;99888.59;5039285;28;20103;-45
2022/08/02 11:40:56;;;;;;;1.15;0.50;;;;;;;29.93;47.65;99882.72;5043194;28;20084;-51
2022/08/02 11:43:26;;;;;;;2.78;0.75;;;;;;;30.02;48.67;99873.88;5043560;28;20115;-45
2022/08/02 11:45:55;;;;;;;1.50;1.05;;;;;;;30.23;48.62;99878.31;5009374;28;20532;-45
2022/08/02 11:48:32;;;;;;;1.67;0.40;;;;;;;30.42;47.55;99876.69;5025624;28;20056;-48
2022/08/02 11:51:08;;;;;;;3.20;0.88;;;;;;;30.48;47.31;99876.13;5042195;28;20086;-45
2022/08/02 11:56:26;;;;;;;1.40;1.02;;;;;;;30.65;47.30;99876.44;5027514;28;20399;-46
2022/08/02 11:59:10;;;;;;;1.63;0.38;;;;;;;30.73;46.39;99881.09;5001230;28;20049;-45
2022/08/02 12:01:40;;;;;;;2.50;0.40;;;;;;;30.72;46.62;99866.88;4996588;28;20042;-43
2022/08/02 12:04:16;;;;;;;1.63;1.10;;;;;;;30.62;46.79;99872.22;4996963;28;20132;-44
2022/08/02 12:06:43;;;;;;;1.52;0.30;;;;;;;30.59;46.59;99877.00;5002632;28;20343;-45
2022/08/02 12:09:13;;;;;;;1.13;0.73;;;;;;;30.61;46.74;99877.69;5000966;28;20050;-49
2022/08/02 12:11:49;;;;;;;3.22;0.40;;;;;;;30.70;47.39;99886.72;5002982;28;20043;-46
2022/08/02 12:14:17;;;;;;;2.72;0.32;;;;;;;30.89;46.89;99883.22;5002646;28;20501;-46
2022/08/02 12:19:31;;;;;;;2.65;0.60;;;;;;;30.97;46.82;99858.47;5007265;28;20046;-45
2022/08/02 12:24:55;;;;;;;1.58;0.75;;;;;;;31.04;45.91;99881.78;5127212;27;20364;-45
2022/08/02 12:27:40;;;;;;;0.70;0.68;;;;;;;30.99;46.28;99872.50;5065423;28;20103;-45
2022/08/02 12:30:11;;;;;;;0.98;0.55;;;;;;;31.09;46.93;99867.16;5084701;28;20044;-48